Decoded Metar for LFYR (ROMORANTIN/PRUNI in FRANCE) (IATA:N/A) | Meteo·Mobile Aviation Weather
aviador You're here:

LFYR Decoded Metar

ROMORANTIN/PRUNI in FRANCE
Report Time2019-04-20 10:30:00
UTC Time2019-04-20 10:59:11
Flight Rules vfr VFR
WindVRB at 03 kt
Visibility9999 m
Phenomena:N/A
Clouds:N/A
Expected CloudBase > 5,200 ft AGL from Temp-Dew spread
CeilingNone
Temp23°C (ISA +9)
Dew Point10°C (44% RH)
AAT22.0°C
QNH1024 hPa
Density Alt1,076 ft
Elevation282 ft
Report Wrong Elevation
Raw Report
METAR LFYR 201030Z AUTO VRB03KT CAVOK 23/10 Q1024=

Extra information for LFYR:More info

Metar Taf Metar & Taf Last 4 Metars F.Rules Stats Wind Profile Meteogram Temp Stats Airport Information Weather charts Add Link Nearby VenuesMetar ALERT Operation Metar Decoded Social comments